Time;durP1;ratioP1;P1;durP2;ratioP2;P2;SDS_P1;SDS_P2;PMS_P1;PMS_P2;Temp;Humidity;BMP_temperature;BMP_pressure;BME280_temperature;BME280_humidity;BME280_pressure;Samples;Min_cycle;Max_cycle;Signal;HPM_P1;HPM_P2
2022/06/02 00:00:09;;;;;;;4.22;2.05;;;;;;;14.62;94.54;100367.97;5555807;31;34397;-69
2022/06/02 00:03:35;;;;;;;3.15;1.80;;;;;;;14.57;94.45;100354.38;5590413;31;35443;-69
2022/06/02 00:06:40;;;;;;;3.45;1.83;;;;;;;14.50;94.11;100353.53;5589825;31;34229;-69
2022/06/02 00:09:59;;;;;;;3.30;2.17;;;;;;;14.45;95.05;100355.94;5590687;31;34451;-69
2022/06/02 00:13:31;;;;;;;2.23;1.80;;;;;;;14.44;95.12;100354.28;5590266;31;34843;-69
2022/06/02 00:16:41;;;;;;;6.18;2.35;;;;;;;14.32;96.12;100362.00;5590241;31;34294;-69
2022/06/02 00:19:46;;;;;;;;;;;;;;;14.27;96.54;100360.91;5589755;31;34383;-69
2022/06/02 00:22:57;;;;;;;3.58;1.60;;;;;;;14.20;96.53;100352.84;5590139;31;35285;-69
2022/06/02 00:26:23;;;;;;;2.15;1.70;;;;;;;14.19;96.41;100358.34;5590169;31;34213;-69
2022/06/02 00:29:36;;;;;;;5.75;2.00;;;;;;;14.20;97.09;100350.16;5590029;31;34300;-69
2022/06/02 00:33:17;;;;;;;4.80;2.20;;;;;;;14.27;97.57;100351.06;5589889;31;34268;-69
2022/06/02 00:37:01;;;;;;;2.65;2.00;;;;;;;14.54;96.69;100348.63;5563787;31;35523;-69
2022/06/02 00:40:07;;;;;;;3.08;1.85;;;;;;;14.75;94.70;100361.94;5559790;31;34953;-69
2022/06/02 00:43:28;;;;;;;2.90;1.77;;;;;;;14.68;92.62;100347.69;5589192;31;34550;-69
2022/06/02 00:46:34;;;;;;;3.53;1.90;;;;;;;14.56;92.87;100336.75;5589847;31;34173;-68
2022/06/02 00:50:07;;;;;;;3.30;1.83;;;;;;;14.44;94.62;100337.44;5589697;31;34837;-69
2022/06/02 00:57:30;;;;;;;3.40;1.90;;;;;;;14.70;90.41;100337.66;5563448;31;34069;-69
2022/06/02 01:00:50;;;;;;;3.45;2.10;;;;;;;14.68;89.48;100327.16;5589803;31;34275;-69
2022/06/02 01:03:55;;;;;;;2.42;1.70;;;;;;;14.64;89.74;100336.59;5589085;31;34657;-69
2022/06/02 01:07:20;;;;;;;3.25;1.90;;;;;;;14.59;90.96;100340.84;5589702;31;34701;-69
2022/06/02 01:10:33;;;;;;;2.15;1.85;;;;;;;14.77;91.08;100339.34;5590127;31;34878;-69
2022/06/02 01:14:15;;;;;;;3.25;1.75;;;;;;;14.64;90.63;100341.09;5589067;31;34096;-69
2022/06/02 01:17:48;;;;;;;2.75;1.60;;;;;;;14.58;90.92;100342.69;5588833;31;34314;-69
2022/06/02 01:21:13;;;;;;;3.15;1.80;;;;;;;14.61;91.33;100333.50;5589612;31;34224;-69
2022/06/02 01:24:30;;;;;;;2.75;1.90;;;;;;;14.65;91.33;100329.41;5589624;31;34130;-69
2022/06/02 01:27:42;;;;;;;2.28;1.60;;;;;;;14.67;91.04;100322.81;5588880;31;34981;-69
2022/06/02 01:30:48;;;;;;;3.40;2.00;;;;;;;14.74;92.13;100320.22;5589549;31;35015;-69
2022/06/02 01:34:00;;;;;;;2.83;2.00;;;;;;;14.82;92.53;100314.72;5589527;31;34844;-69
2022/06/02 01:37:41;;;;;;;2.25;1.80;;;;;;;14.78;93.16;100316.94;5589453;31;34778;-69
2022/06/02 01:41:09;;;;;;;3.50;1.95;;;;;;;14.83;91.67;100320.88;5589310;31;34164;-69
2022/06/02 01:44:22;;;;;;;2.45;1.90;;;;;;;14.93;91.88;100308.81;5588600;31;34877;-70
2022/06/02 01:47:33;;;;;;;5.80;1.70;;;;;;;15.13;90.04;100312.41;5589393;31;34188;-69
2022/06/02 01:51:07;;;;;;;2.15;1.62;;;;;;;15.15;89.83;100312.22;5589650;31;34221;-69
2022/06/02 01:54:39;;;;;;;3.67;2.00;;;;;;;14.99;92.79;100310.72;5589364;31;34824;-69
2022/06/02 01:57:42;;;;;;;4.35;2.05;;;;;;;14.98;95.62;100321.56;5589265;31;34854;-68
2022/06/02 02:00:52;;;;;;;5.28;2.10;;;;;;;15.08;96.41;100327.38;5589138;31;34838;-69
2022/06/02 02:04:17;;;;;;;4.95;1.85;;;;;;;15.03;97.29;100319.97;5589162;31;34855;-69
2022/06/02 02:07:39;;;;;;;4.60;1.60;;;;;;;15.02;97.43;100320.16;5589010;31;34287;-69
2022/06/02 02:11:06;;;;;;;2.67;1.70;;;;;;;14.97;95.59;100322.59;5589104;31;34811;-69
2022/06/02 02:14:47;;;;;;;2.62;1.75;;;;;;;14.83;94.59;100311.03;5589354;31;34467;-70
2022/06/02 02:18:12;;;;;;;3.65;1.67;;;;;;;14.90;93.82;100309.22;5589010;31;34388;-69
2022/06/02 02:21:48;;;;;;;1.75;1.50;;;;;;;14.93;93.98;100308.00;5588984;31;34246;-69
2022/06/02 02:25:10;;;;;;;2.35;1.60;;;;;;;14.99;93.81;100308.03;5583055;31;34086;-69
2022/06/02 02:28:27;;;;;;;2.17;1.45;;;;;;;14.96;92.41;100312.97;5589222;31;34349;-69
2022/06/02 02:31:45;;;;;;;3.62;1.80;;;;;;;15.09;91.10;100308.50;5588867;31;34907;-70
2022/06/02 02:35:06;;;;;;;5.93;1.62;;;;;;;15.33;89.52;100303.66;5588724;31;34259;-69
2022/06/02 02:38:20;;;;;;;1.70;1.27;;;;;;;15.36;89.61;100313.94;5588008;31;34314;-69
2022/06/02 02:42:00;;;;;;;1.98;1.40;;;;;;;15.31;89.39;100335.91;5588154;31;35033;-69
2022/06/02 02:45:30;;;;;;;1.58;1.48;;;;;;;15.42;87.70;100346.03;5588577;31;35566;-69
2022/06/02 02:48:52;;;;;;;4.07;1.60;;;;;;;15.42;86.82;100371.94;5588447;31;34157;-70
2022/06/02 02:52:24;;;;;;;4.35;1.60;;;;;;;15.33;87.22;100378.50;5588814;31;34306;-70
2022/06/02 02:55:40;;;;;;;4.10;1.80;;;;;;;15.45;89.71;100376.88;5588363;31;34656;-70
2022/06/02 02:58:55;;;;;;;2.37;1.65;;;;;;;15.46;88.14;100370.53;5588307;31;35498;-69
2022/06/02 03:02:16;;;;;;;2.20;1.60;;;;;;;15.33;88.74;100379.31;5587741;31;34221;-69
2022/06/02 03:05:28;;;;;;;2.35;1.58;;;;;;;15.35;86.30;100393.28;5588153;31;35445;-69
2022/06/02 03:08:50;;;;;;;2.20;1.60;;;;;;;15.51;85.57;100406.37;5588482;31;34865;-68
2022/06/02 03:11:53;;;;;;;1.90;1.60;;;;;;;15.30;87.30;100408.31;5588077;31;34684;-69
2022/06/02 03:15:09;;;;;;;3.65;1.70;;;;;;;15.10;88.87;100422.34;5588084;31;35405;-69
2022/06/02 03:18:38;;;;;;;3.65;1.90;;;;;;;15.02;90.74;100432.38;5587918;31;35631;-70
2022/06/02 03:21:53;;;;;;;2.10;1.62;;;;;;;15.06;94.92;100433.63;5587927;31;34671;-69
2022/06/02 03:25:09;;;;;;;3.10;2.20;;;;;;;14.99;92.88;100441.63;5587853;31;34306;-69
2022/06/02 03:28:28;;;;;;;1.90;1.70;;;;;;;14.98;97.27;100449.81;5588106;31;34272;-69
2022/06/02 03:31:47;;;;;;;5.28;1.90;;;;;;;14.88;100.00;100452.81;5587905;31;34250;-70
2022/06/02 03:35:14;;;;;;;3.72;1.95;;;;;;;14.77;100.00;100462.19;5587635;31;34179;-70
2022/06/02 03:38:23;;;;;;;3.65;2.10;;;;;;;14.72;100.00;100464.59;5587640;31;34186;-70
2022/06/02 03:41:56;;;;;;;4.00;2.05;;;;;;;14.63;100.00;100457.75;5588444;31;34248;-69
2022/06/02 03:45:17;;;;;;;5.40;2.15;;;;;;;14.59;100.00;100451.16;5590857;31;34145;-70
2022/06/02 03:48:49;;;;;;;3.85;2.28;;;;;;;14.63;100.00;100446.25;5590516;31;34243;-70
2022/06/02 03:52:10;;;;;;;4.68;2.50;;;;;;;14.79;100.00;100446.81;5589881;31;34178;-70
2022/06/02 03:55:46;;;;;;;8.15;3.40;;;;;;;14.67;100.00;100447.50;5590405;31;34256;-68
2022/06/02 03:58:58;;;;;;;2.95;2.42;;;;;;;14.71;100.00;100438.94;5590466;31;34226;-68
2022/06/02 04:02:14;;;;;;;4.37;2.70;;;;;;;14.66;100.00;100433.34;5590353;31;34296;-68
2022/06/02 04:05:32;;;;;;;3.17;2.67;;;;;;;14.78;100.00;100422.94;5590411;31;34177;-68
2022/06/02 04:08:47;;;;;;;5.07;3.58;;;;;;;14.70;100.00;100410.59;5590354;31;34214;-68
2022/06/02 04:15:46;;;;;;;3.80;2.87;;;;;;;14.49;100.00;100417.78;5590570;31;34270;-68
2022/06/02 04:18:55;;;;;;;8.35;3.62;;;;;;;14.54;100.00;100408.19;5590165;31;34227;-67
2022/06/02 04:22:32;;;;;;;4.82;3.12;;;;;;;14.60;100.00;100415.44;5590045;31;34951;-68
2022/06/02 04:25:57;;;;;;;3.97;3.25;;;;;;;14.60;100.00;100435.94;5582258;31;34115;-68
2022/06/02 04:29:09;;;;;;;3.70;3.20;;;;;;;14.72;100.00;100443.25;5590183;31;34582;-68
2022/06/02 04:32:31;;;;;;;4.70;3.50;;;;;;;14.86;100.00;100438.03;5589931;31;34877;-68
2022/06/02 04:35:47;;;;;;;4.03;3.08;;;;;;;14.96;100.00;100441.97;5590129;31;34147;-68
2022/06/02 04:39:19;;;;;;;4.57;3.45;;;;;;;15.06;100.00;100455.00;5590268;31;34960;-68
2022/06/02 04:42:30;;;;;;;5.00;3.30;;;;;;;15.13;100.00;100443.34;5589928;31;34518;-68
2022/06/02 04:46:13;;;;;;;5.57;3.70;;;;;;;15.26;100.00;100442.59;5589960;31;34143;-68
2022/06/02 04:49:40;;;;;;;6.35;3.50;;;;;;;15.43;100.00;100441.28;5550910;31;33187;-69
2022/06/02 04:52:53;;;;;;;4.60;3.12;;;;;;;15.53;100.00;100444.44;5589714;31;34255;-68
2022/06/02 04:55:58;;;;;;;5.72;2.78;;;;;;;15.64;100.00;100456.41;5590076;31;34874;-69
2022/06/02 04:59:26;;;;;;;3.22;2.62;;;;;;;15.89;100.00;100443.34;5589707;31;34333;-68
2022/06/02 05:02:34;;;;;;;11.20;3.42;;;;;;;15.89;100.00;100454.88;5589019;31;34278;-68
2022/06/02 05:05:42;;;;;;;5.93;3.40;;;;;;;16.00;100.00;100453.47;5588755;31;34238;-68
2022/06/02 05:08:54;;;;;;;4.22;3.00;;;;;;;16.03;100.00;100448.53;5589630;31;34829;-69
2022/06/02 05:12:17;;;;;;;5.55;3.35;;;;;;;16.02;100.00;100457.56;5588873;31;32973;-68
2022/06/02 05:15:52;;;;;;;5.50;3.30;;;;;;;16.10;100.00;100459.28;5589676;31;34233;-69
2022/06/02 05:19:09;;;;;;;3.78;3.40;;;;;;;16.13;100.00;100456.19;5589276;31;34314;-68
2022/06/02 05:22:26;;;;;;;5.05;3.80;;;;;;;16.15;100.00;100455.97;5589336;31;34243;-69
2022/06/02 05:26:05;;;;;;;5.90;3.35;;;;;;;16.32;100.00;100470.63;5589470;31;34873;-69
2022/06/02 05:29:44;;;;;;;5.53;3.63;;;;;;;16.29;100.00;100471.88;5589354;31;34171;-68
2022/06/02 05:33:07;;;;;;;3.80;3.08;;;;;;;16.50;100.00;100466.38;5588973;31;34970;-69
2022/06/02 05:36:37;;;;;;;5.75;2.95;;;;;;;16.71;100.00;100478.75;5589242;31;34278;-68
2022/06/02 05:40:12;;;;;;;4.12;2.80;;;;;;;16.77;99.29;100477.13;5588905;31;34921;-68
2022/06/02 05:43:57;;;;;;;9.07;2.67;;;;;;;16.83;97.53;100495.06;5588913;31;34834;-67
2022/06/02 05:47:06;;;;;;;4.07;2.83;;;;;;;16.52;100.00;100498.28;5530512;31;34142;-68
2022/06/02 05:50:32;;;;;;;3.05;2.53;;;;;;;16.24;100.00;100495.75;5588878;31;34518;-68
2022/06/02 05:53:54;;;;;;;3.80;2.80;;;;;;;16.37;100.00;100482.38;5588903;31;34839;-67
2022/06/02 05:56:57;;;;;;;3.85;2.78;;;;;;;16.45;100.00;100486.75;5589570;31;34255;-68
2022/06/02 06:00:26;;;;;;;3.67;2.95;;;;;;;16.41;100.00;100480.16;5588810;31;34341;-68
2022/06/02 06:03:55;;;;;;;6.22;3.15;;;;;;;16.32;100.00;100474.13;5563658;31;33245;-68
2022/06/02 06:07:13;;;;;;;4.07;2.87;;;;;;;16.34;100.00;100487.34;5565365;31;34117;-67
2022/06/02 06:10:48;;;;;;;8.43;3.15;;;;;;;16.52;100.00;100490.25;5588827;31;35038;-67
2022/06/02 06:14:09;;;;;;;3.75;2.70;;;;;;;16.68;99.36;100499.78;5589012;31;34278;-67
2022/06/02 06:17:53;;;;;;;4.53;2.95;;;;;;;16.86;97.72;100508.03;5588637;31;35101;-68
2022/06/02 06:21:16;;;;;;;7.35;3.03;;;;;;;17.04;100.00;100502.06;5588796;31;34170;-67
2022/06/02 06:24:43;;;;;;;4.10;2.67;;;;;;;17.13;98.10;100500.84;5588492;31;34317;-68
2022/06/02 06:28:28;;;;;;;3.92;2.80;;;;;;;17.32;96.56;100506.19;5588569;31;34898;-69
2022/06/02 06:31:51;;;;;;;5.53;2.30;;;;;;;17.51;94.44;100509.84;5584525;31;35487;-68
2022/06/02 06:35:17;;;;;;;4.53;2.58;;;;;;;18.04;90.32;100502.50;5588507;31;34877;-68
2022/06/02 06:38:35;;;;;;;5.78;3.00;;;;;;;18.50;86.54;100517.50;5588286;31;35275;-69
2022/06/02 06:42:05;;;;;;;2.60;2.30;;;;;;;19.22;82.94;100530.44;5587392;31;34234;-71
2022/06/02 06:45:49;;;;;;;3.58;1.87;;;;;;;19.48;79.62;100535.63;5587910;31;34227;-68
2022/06/02 06:48:58;;;;;;;3.12;2.08;;;;;;;19.73;78.58;100545.53;5588239;31;34407;-69
2022/06/02 06:52:24;;;;;;;4.03;2.10;;;;;;;19.06;79.48;100544.47;5588453;31;34758;-70
2022/06/02 06:55:48;;;;;;;3.10;1.70;;;;;;;19.30;79.91;100538.25;5588645;31;34913;-70
2022/06/02 06:59:08;;;;;;;4.78;2.00;;;;;;;19.21;77.59;100544.12;5588052;31;34857;-69
2022/06/02 07:02:14;;;;;;;;;;;;;;;19.12;76.46;100540.91;5588367;31;35474;-69
2022/06/02 07:05:25;;;;;;;3.00;1.90;;;;;;;19.01;76.80;100537.06;5587965;31;35033;-69
2022/06/02 07:08:38;;;;;;;2.20;1.58;;;;;;;19.09;76.37;100535.94;5587376;31;33979;-69
2022/06/02 07:15:19;;;;;;;4.35;2.08;;;;;;;19.94;71.93;100555.87;5588283;31;34394;-70
2022/06/02 07:18:45;;;;;;;4.93;1.62;;;;;;;20.30;68.67;100563.94;5590796;31;34363;-71
2022/06/02 07:22:20;;;;;;;3.53;1.60;;;;;;;20.75;64.02;100547.38;5582501;31;35452;-71
2022/06/02 07:25:29;;;;;;;6.93;2.00;;;;;;;21.33;64.32;100552.91;5589446;31;34238;-70
2022/06/02 07:28:45;;;;;;;2.50;1.83;;;;;;;21.85;61.57;100552.97;5590444;31;34194;-71
2022/06/02 07:32:17;;;;;;;3.58;1.83;;;;;;;21.41;63.55;100544.44;5590441;31;34955;-72
2022/06/02 07:35:47;;;;;;;4.32;1.65;;;;;;;21.39;62.96;100546.56;5589982;31;34175;-72
2022/06/02 07:39:09;;;;;;;3.40;1.83;;;;;;;21.08;65.92;100547.66;5589810;31;33543;-71
2022/06/02 07:42:39;;;;;;;4.55;1.83;;;;;;;21.29;65.02;100535.53;5590424;31;34627;-70
2022/06/02 07:45:57;;;;;;;3.08;2.00;;;;;;;22.64;61.02;100537.84;5590526;31;34167;-72
2022/06/02 07:49:40;;;;;;;6.90;2.90;;;;;;;23.23;56.80;100542.69;5589322;31;34924;-72
2022/06/02 07:53:10;;;;;;;4.05;2.25;;;;;;;23.15;57.13;100545.78;5590606;31;34276;-73
2022/06/02 07:56:40;;;;;;;6.10;1.58;;;;;;;24.05;56.17;100553.62;5590265;31;34212;-73
2022/06/02 07:59:55;;;;;;;3.05;1.80;;;;;;;24.84;51.40;100545.00;5590100;31;34914;-72
2022/06/02 08:03:06;;;;;;;2.78;1.67;;;;;;;24.40;53.01;100547.00;5590209;31;34167;-72
2022/06/02 08:06:15;;;;;;;4.57;1.92;;;;;;;24.19;52.72;100554.91;5590268;31;34226;-72
2022/06/02 08:10:03;;;;;;;3.83;2.20;;;;;;;24.41;55.08;100556.75;5590170;31;34588;-73
2022/06/02 08:13:19;;;;;;;3.33;2.20;;;;;;;24.04;55.24;100564.72;5589955;31;34412;-72
2022/06/02 08:16:49;;;;;;;3.20;1.85;;;;;;;23.82;54.81;100565.50;5589579;31;34918;-72
2022/06/02 08:19:58;;;;;;;2.47;1.85;;;;;;;24.15;54.71;100574.62;5590214;31;34575;-70
2022/06/02 08:23:25;;;;;;;4.13;1.77;;;;;;;24.40;53.62;100564.06;5589007;31;32775;-72
2022/06/02 08:26:53;;;;;;;4.37;2.08;;;;;;;24.12;54.76;100565.06;5588749;31;33365;-71
2022/06/02 08:30:18;;;;;;;2.95;1.80;;;;;;;23.40;56.45;100567.00;5590226;31;34189;-72
2022/06/02 08:33:50;;;;;;;3.03;2.00;;;;;;;23.81;56.87;100561.16;5589635;31;34812;-71
2022/06/02 08:37:10;;;;;;;4.32;2.30;;;;;;;23.93;54.27;100558.31;5589387;31;34360;-71
2022/06/02 08:40:49;;;;;;;5.40;2.15;;;;;;;24.94;53.47;100566.84;5575728;31;33105;-71
2022/06/02 08:44:25;;;;;;;3.40;2.08;;;;;;;25.82;49.15;100560.72;5589619;31;34244;-72
2022/06/02 08:48:12;;;;;;;3.35;1.77;;;;;;;27.43;46.78;100562.22;5588751;31;33300;-73
2022/06/02 08:51:33;;;;;;;4.57;1.90;;;;;;;28.62;42.94;100563.16;5563591;31;35409;-73
2022/06/02 08:55:22;;;;;;;2.45;1.73;;;;;;;29.29;42.29;100564.31;5588725;31;33678;-72
2022/06/02 08:59:12;;;;;;;3.35;1.60;;;;;;;28.97;40.95;100567.59;5589654;31;34452;-71
2022/06/02 09:02:37;;;;;;;5.37;1.37;;;;;;;27.80;43.44;100563.78;5589625;31;34611;-72
2022/06/02 09:05:39;;;;;;;2.58;1.50;;;;;;;29.97;40.67;100566.97;5589504;31;34899;-72
2022/06/02 09:08:48;;;;;;;1.40;1.20;;;;;;;29.51;39.67;100555.69;5589250;31;34355;-71
2022/06/02 09:12:25;;;;;;;3.80;1.20;;;;;;;29.17;39.51;100561.97;5589641;31;34923;-71
2022/06/02 09:15:49;;;;;;;1.57;1.10;;;;;;;28.85;40.49;100562.50;5581449;31;34567;-69
2022/06/02 09:19:01;;;;;;;2.47;0.90;;;;;;;29.56;38.13;100564.66;5589757;31;34325;-71
2022/06/02 09:22:32;;;;;;;1.35;1.20;;;;;;;29.62;39.23;100568.97;5588932;31;34863;-71
2022/06/02 09:25:47;;;;;;;3.20;1.40;;;;;;;29.84;38.82;100576.66;5588606;31;33085;-73
2022/06/02 09:29:19;;;;;;;2.55;0.90;;;;;;;31.24;35.80;100571.47;5588361;31;34317;-72
2022/06/02 09:32:34;;;;;;;2.05;1.17;;;;;;;31.55;35.74;100580.00;5589214;31;34565;-72
2022/06/02 09:35:45;;;;;;;1.20;1.00;;;;;;;30.26;38.21;100561.44;5589379;31;34974;-72
2022/06/02 09:39:25;;;;;;;1.48;0.95;;;;;;;30.04;37.77;100573.72;5588699;31;34188;-72
2022/06/02 09:42:44;;;;;;;2.60;1.08;;;;;;;31.25;36.28;100575.84;5589235;31;35769;-71
2022/06/02 09:45:58;;;;;;;5.70;1.30;;;;;;;31.71;34.96;100570.41;5589029;31;34915;-71
2022/06/02 09:49:27;;;;;;;1.70;1.12;;;;;;;30.14;39.01;100579.06;5589289;31;35454;-70
2022/06/02 09:52:38;;;;;;;1.80;1.10;;;;;;;31.05;37.31;100575.09;5591366;31;34189;-72
2022/06/02 09:56:09;;;;;;;8.57;1.30;;;;;;;33.23;34.26;100572.56;5592745;31;35051;-71
2022/06/02 09:59:34;;;;;;;2.65;1.23;;;;;;;35.36;30.34;100556.06;5591721;31;34644;-70
2022/06/02 10:03:08;;;;;;;3.17;1.10;;;;;;;32.70;33.49;100559.53;5592986;31;34623;-71
2022/06/02 10:06:32;;;;;;;2.08;1.50;;;;;;;32.10;35.24;100551.50;5595619;31;34624;-67
2022/06/02 10:09:41;;;;;;;3.40;1.48;;;;;;;32.40;34.89;100558.28;5588794;31;34321;-69
2022/06/02 10:13:08;;;;;;;2.25;1.27;;;;;;;33.57;32.74;100556.25;5587739;31;35496;-71
2022/06/02 10:16:45;;;;;;;1.67;1.10;;;;;;;34.71;30.29;100555.16;5588491;31;34316;-70
2022/06/02 10:20:12;;;;;;;1.15;1.00;;;;;;;31.84;34.48;100555.87;5588845;31;34636;-71
2022/06/02 10:23:55;;;;;;;1.62;1.10;;;;;;;33.42;32.49;100554.72;5588038;31;34232;-72
2022/06/02 10:27:07;;;;;;;1.92;0.93;;;;;;;34.74;31.31;100551.75;5588525;31;35439;-72
2022/06/02 10:30:41;;;;;;;4.68;1.20;;;;;;;35.27;30.11;100543.13;5587655;31;32495;-72
2022/06/02 10:33:56;;;;;;;1.50;1.12;;;;;;;35.07;30.17;100545.72;5587757;31;34405;-69
2022/06/02 10:37:36;;;;;;;1.45;0.90;;;;;;;29.74;39.24;100550.25;5588518;31;34296;-67
2022/06/02 10:41:00;;;;;;;2.00;1.20;;;;;;;28.20;43.44;100546.50;5588847;31;35610;-69
2022/06/02 10:44:06;;;;;;;2.60;1.30;;;;;;;28.72;42.46;100546.75;5588501;31;34548;-71
2022/06/02 10:47:27;;;;;;;1.05;0.95;;;;;;;28.37;44.61;100538.78;5588170;31;34891;-69
2022/06/02 10:50:48;;;;;;;1.90;0.95;;;;;;;28.93;41.72;100539.25;5589004;31;34212;-73
2022/06/02 10:54:00;;;;;;;2.47;1.20;;;;;;;26.98;47.00;100543.16;5589868;31;32574;-71
2022/06/02 10:57:23;;;;;;;2.35;1.33;;;;;;;30.18;41.89;100535.50;5590794;31;34181;-72
2022/06/02 11:00:45;;;;;;;4.40;1.60;;;;;;;31.60;37.80;100534.12;5590619;31;34500;-70
2022/06/02 11:04:15;;;;;;;3.17;1.27;;;;;;;31.59;37.38;100550.88;5590888;31;34189;-69
2022/06/02 11:07:56;;;;;;;2.35;1.20;;;;;;;33.56;34.55;100558.19;5590544;31;34285;-67
2022/06/02 11:11:33;;;;;;;2.10;1.25;;;;;;;32.29;35.78;100549.44;5590516;31;34813;-72
2022/06/02 11:14:57;;;;;;;2.87;1.20;;;;;;;34.07;32.63;100551.31;5589916;31;33639;-72
2022/06/02 11:18:18;;;;;;;1.58;1.08;;;;;;;33.54;33.69;100548.66;5590910;31;34421;-69
2022/06/02 11:21:54;;;;;;;1.45;1.00;;;;;;;33.54;32.02;100541.22;5589750;31;33602;-70
2022/06/02 11:25:40;;;;;;;2.87;1.10;;;;;;;33.32;32.77;100533.00;5590430;31;34861;-70
2022/06/02 11:28:58;;;;;;;3.00;1.48;;;;;;;33.09;34.14;100537.69;5590646;31;34293;-68
2022/06/02 11:32:12;;;;;;;2.83;1.20;;;;;;;34.67;31.46;100543.16;5590409;31;34167;-72
2022/06/02 11:35:24;;;;;;;1.27;1.08;;;;;;;35.20;30.21;100541.97;5590224;31;34249;-69
2022/06/02 11:38:45;;;;;;;1.87;0.93;;;;;;;36.11;27.91;100549.75;5590430;31;34272;-70
2022/06/02 11:42:29;;;;;;;2.45;1.02;;;;;;;33.92;31.48;100540.72;5590289;31;34515;-70
2022/06/02 11:46:09;;;;;;;1.90;1.12;;;;;;;35.95;28.52;100545.94;5590354;31;34532;-69
2022/06/02 11:49:43;;;;;;;1.58;1.10;;;;;;;33.88;32.53;100550.75;5589715;31;34352;-71
2022/06/02 11:53:04;;;;;;;1.20;1.00;;;;;;;34.30;31.77;100546.50;5589369;31;34359;-72
2022/06/02 11:56:19;;;;;;;1.00;0.85;;;;;;;35.36;29.44;100553.31;5590367;31;34161;-71
2022/06/02 11:59:41;;;;;;;4.68;1.12;;;;;;;35.31;28.86;100551.53;5589916;31;34823;-69
2022/06/02 12:03:15;;;;;;;1.10;1.00;;;;;;;36.15;28.38;100551.56;5589454;31;34189;-72
2022/06/02 12:06:57;;;;;;;2.42;1.17;;;;;;;36.68;26.70;100547.28;5589991;31;34269;-73
2022/06/02 12:10:34;;;;;;;1.98;1.00;;;;;;;34.61;30.19;100546.38;5589463;31;33548;-70
2022/06/02 12:13:44;;;;;;;1.23;0.93;;;;;;;34.64;29.64;100554.00;5589380;31;33069;-71
2022/06/02 12:17:27;;;;;;;1.25;0.88;;;;;;;35.48;29.17;100542.41;5590115;31;34343;-71
2022/06/02 12:21:12;;;;;;;1.92;0.90;;;;;;;38.05;24.82;100549.72;5589465;31;34171;-72
2022/06/02 12:24:21;;;;;;;1.30;0.77;;;;;;;36.34;26.89;100551.09;5590100;31;34319;-70
2022/06/02 12:27:46;;;;;;;3.42;0.98;;;;;;;36.83;26.34;100560.50;5589164;31;34926;-71
2022/06/02 12:31:12;;;;;;;0.88;0.62;;;;;;;38.18;23.93;100554.88;5589959;31;34867;-72
2022/06/02 12:34:36;;;;;;;3.28;0.90;;;;;;;37.30;25.06;100557.44;5589997;31;34411;-70
2022/06/02 12:37:48;;;;;;;0.70;0.68;;;;;;;36.62;25.39;100554.16;5590026;31;34335;-71
2022/06/02 12:41:11;;;;;;;1.25;0.80;;;;;;;35.47;27.37;100538.00;5589797;31;34354;-71
2022/06/02 12:44:55;;;;;;;2.40;0.77;;;;;;;36.65;25.89;100547.16;5589622;31;35461;-72
2022/06/02 12:48:29;;;;;;;0.80;0.70;;;;;;;38.10;24.04;100552.25;5566445;31;34772;-72
2022/06/02 12:51:43;;;;;;;0.80;0.50;;;;;;;37.11;24.48;100559.91;5589749;31;34115;-70
2022/06/02 12:55:23;;;;;;;1.52;0.55;;;;;;;38.13;22.51;100566.22;5588910;31;32958;-69
2022/06/02 12:58:31;;;;;;;1.15;0.65;;;;;;;36.73;24.35;100558.13;5589809;31;34342;-70
2022/06/02 13:01:51;;;;;;;1.52;0.70;;;;;;;38.38;22.04;100561.44;5589945;31;35494;-69
2022/06/02 13:05:21;;;;;;;1.87;0.50;;;;;;;38.27;22.03;100558.34;5589773;31;34275;-69
2022/06/02 13:08:53;;;;;;;0.57;0.47;;;;;;;37.93;22.03;100563.53;5589676;31;34941;-69
2022/06/02 13:12:26;;;;;;;3.80;0.68;;;;;;;38.88;21.32;100569.28;5589616;31;34170;-70
2022/06/02 13:15:41;;;;;;;1.27;0.60;;;;;;;37.94;21.81;100556.84;5589244;31;34658;-71
2022/06/02 13:18:56;;;;;;;3.90;0.60;;;;;;;39.65;20.42;100558.69;5588746;31;32904;-70
2022/06/02 13:22:31;;;;;;;1.98;0.50;;;;;;;39.03;20.68;100551.06;5588830;31;32999;-69
2022/06/02 13:25:52;;;;;;;1.50;0.50;;;;;;;36.99;22.26;100560.62;5588583;31;33217;-68
2022/06/02 13:29:09;;;;;;;0.65;0.47;;;;;;;36.18;23.41;100558.34;5589305;31;34740;-70
2022/06/02 13:32:35;;;;;;;1.27;0.73;;;;;;;37.51;21.28;100551.81;5589115;31;34432;-70
2022/06/02 13:36:02;;;;;;;0.70;0.50;;;;;;;39.18;19.96;100550.28;5589130;31;34271;-70
2022/06/02 13:39:08;;;;;;;1.23;0.60;;;;;;;39.08;20.63;100556.38;5588342;31;34310;-70
2022/06/02 13:42:22;;;;;;;1.55;0.40;;;;;;;38.34;21.03;100546.66;5588815;31;34891;-72
2022/06/02 13:45:47;;;;;;;0.95;0.60;;;;;;;39.20;20.25;100544.41;5588778;31;34222;-70
2022/06/02 13:49:21;;;;;;;7.32;0.60;;;;;;;40.62;18.33;100551.47;5588159;31;33575;-68
2022/06/02 13:52:45;;;;;;;3.65;0.62;;;;;;;38.81;20.54;100541.34;5589203;31;34976;-69
2022/06/02 13:59:40;;;;;;;0.85;0.50;;;;;;;36.71;21.77;100532.78;5588673;31;34439;-68
2022/06/02 14:03:06;;;;;;;0.90;0.40;;;;;;;38.56;20.30;100537.84;5589054;31;34234;-71
2022/06/02 14:06:18;;;;;;;1.37;0.50;;;;;;;39.29;19.41;100540.28;5588636;31;34199;-69
2022/06/02 14:09:48;;;;;;;8.05;0.70;;;;;;;37.83;20.06;100537.09;5588775;31;34120;-70
2022/06/02 14:13:04;;;;;;;0.65;0.50;;;;;;;37.53;20.94;100541.19;5588174;31;34348;-70
2022/06/02 14:16:16;;;;;;;0.52;0.50;;;;;;;38.70;19.86;100534.66;5588099;31;34575;-70
2022/06/02 14:19:31;;;;;;;0.82;0.70;;;;;;;38.21;20.37;100529.25;5588726;31;34792;-69
2022/06/02 14:22:52;;;;;;;0.80;0.60;;;;;;;33.02;26.26;100534.56;5588201;31;34616;-70
2022/06/02 14:26:02;;;;;;;0.90;0.50;;;;;;;32.83;26.95;100525.69;5587681;31;34514;-70
2022/06/02 14:29:24;;;;;;;1.48;0.62;;;;;;;31.87;29.41;100534.12;5588703;31;34863;-72
2022/06/02 14:32:54;;;;;;;5.53;0.65;;;;;;;33.26;26.56;100522.47;5587946;31;34386;-69
2022/06/02 14:36:19;;;;;;;1.35;0.60;;;;;;;34.48;24.43;100520.59;5588010;31;34366;-70
2022/06/02 14:39:40;;;;;;;0.80;0.65;;;;;;;35.81;22.61;100526.03;5587604;31;34378;-72
2022/06/02 14:43:09;;;;;;;0.60;0.50;;;;;;;36.19;22.19;100513.00;5587115;31;32582;-70
2022/06/02 14:46:34;;;;;;;4.12;1.02;;;;;;;35.51;22.26;100514.94;5587990;31;34900;-70
2022/06/02 14:50:08;;;;;;;1.17;0.60;;;;;;;35.50;22.75;100513.31;5587879;31;34240;-71
2022/06/02 14:53:14;;;;;;;1.35;0.55;;;;;;;35.60;23.12;100521.25;5587972;31;34851;-70
2022/06/02 14:56:36;;;;;;;1.35;0.70;;;;;;;37.29;20.87;100519.84;5587569;31;34518;-70
2022/06/02 15:00:13;;;;;;;0.70;0.50;;;;;;;36.00;21.83;100516.19;5587958;31;34894;-69
2022/06/02 15:03:40;;;;;;;0.93;0.62;;;;;;;34.74;24.06;100512.34;5587805;31;34253;-70
2022/06/02 15:07:14;;;;;;;0.93;0.68;;;;;;;34.08;25.24;100499.81;5587851;31;34239;-70
2022/06/02 15:10:44;;;;;;;1.20;0.70;;;;;;;34.53;24.89;100508.59;5586757;31;34254;-69
2022/06/02 15:13:58;;;;;;;1.02;0.60;;;;;;;35.59;22.76;100507.75;5587436;31;34840;-69
2022/06/02 15:17:39;;;;;;;1.20;0.60;;;;;;;35.89;23.14;100511.37;5587429;31;34757;-70
2022/06/02 15:21:04;;;;;;;0.80;0.60;;;;;;;33.09;25.72;100499.22;5586775;31;34616;-68
2022/06/02 15:24:34;;;;;;;0.60;0.60;;;;;;;30.95;27.98;100501.22;5587052;31;34320;-68
2022/06/02 15:27:46;;;;;;;1.10;0.60;;;;;;;28.94;32.20;100503.44;5587191;31;35438;-69
2022/06/02 15:31:00;;;;;;;0.82;0.60;;;;;;;27.81;34.17;100491.81;5586783;31;34828;-70
2022/06/02 15:34:12;;;;;;;4.47;0.60;;;;;;;27.47;35.77;100495.16;5587061;31;34508;-70
2022/06/02 15:37:53;;;;;;;1.33;0.80;;;;;;;27.07;35.16;100493.31;5587604;31;34616;-72
2022/06/02 15:41:20;;;;;;;2.17;0.85;;;;;;;26.94;36.64;100490.34;5589510;31;34480;-70
2022/06/02 15:45:14;;;;;;;2.95;0.70;;;;;;;27.50;35.76;100507.44;5589538;31;34321;-72
2022/06/02 15:48:36;;;;;;;1.60;0.85;;;;;;;28.41;32.09;100501.63;5589463;31;34826;-69
2022/06/02 15:51:57;;;;;;;0.82;0.60;;;;;;;28.64;31.46;100516.50;5589945;31;37544;-70
2022/06/02 15:55:33;;;;;;;2.22;0.90;;;;;;;28.04;34.31;100518.44;5589554;31;34866;-72
2022/06/02 15:59:03;;;;;;;1.42;0.60;;;;;;;29.33;32.39;100516.25;5589375;31;34443;-72